Time;durP1;ratioP1;P1;durP2;ratioP2;P2;SDS_P1;SDS_P2;PMS_P1;PMS_P2;Temp;Humidity;BMP_temperature;BMP_pressure;BME280_temperature;BME280_humidity;BME280_pressure;Samples;Min_cycle;Max_cycle;Signal;HPM_P1;HPM_P2
2021/08/11 00:02:21;;;;;;;2.40;2.20;;;19.60;99.90;;;;;;4993825;28;20209;-79
2021/08/11 00:04:47;;;;;;;2.40;2.00;;;19.60;99.90;;;;;;4994654;28;20226;-79
2021/08/11 00:07:14;;;;;;;3.58;2.40;;;19.50;99.90;;;;;;4985942;28;20237;-78
2021/08/11 00:09:41;;;;;;;2.28;2.03;;;19.50;99.90;;;;;;4995361;28;20193;-78
2021/08/11 00:12:09;;;;;;;2.45;2.20;;;19.40;99.90;;;;;;4996261;28;20198;-79
2021/08/11 00:14:36;;;;;;;3.95;2.28;;;19.40;99.90;;;;;;4995281;28;20205;-78
2021/08/11 00:17:03;;;;;;;2.47;2.08;;;19.40;99.90;;;;;;4983843;28;20205;-79
2021/08/11 00:19:30;;;;;;;1.95;1.67;;;19.40;99.90;;;;;;4991646;28;20206;-78
2021/08/11 00:21:56;;;;;;;6.88;2.63;;;19.40;99.90;;;;;;4995194;28;20205;-79
2021/08/11 00:24:23;;;;;;;2.15;1.95;;;19.40;99.90;;;;;;4987429;28;20222;-78
2021/08/11 00:26:50;;;;;;;2.33;1.98;;;19.40;99.90;;;;;;4992468;28;20647;-78
2021/08/11 00:29:18;;;;;;;2.25;2.05;;;19.30;99.90;;;;;;4994426;28;20646;-79
2021/08/11 00:31:45;;;;;;;2.50;1.92;;;19.30;99.90;;;;;;4995746;28;20201;-79
2021/08/11 00:34:11;;;;;;;2.38;2.17;;;19.30;99.90;;;;;;4998198;28;20200;-79
2021/08/11 00:36:38;;;;;;;2.53;2.33;;;19.30;99.90;;;;;;4996744;28;20638;-78
2021/08/11 00:39:05;;;;;;;2.88;1.95;;;19.30;99.90;;;;;;4999560;28;20193;-79
2021/08/11 00:41:32;;;;;;;2.30;1.88;;;19.30;99.90;;;;;;5000179;28;20198;-78
2021/08/11 00:43:59;;;;;;;2.40;2.20;;;19.30;99.90;;;;;;4999659;28;20222;-78
2021/08/11 00:46:27;;;;;;;1.80;1.70;;;19.20;99.90;;;;;;4995195;28;20198;-78
2021/08/11 00:48:53;;;;;;;2.55;2.35;;;19.10;99.90;;;;;;4992679;28;20210;-79
2021/08/11 00:51:20;;;;;;;2.53;2.33;;;19.20;99.90;;;;;;4996429;28;20212;-78
2021/08/11 00:53:49;;;;;;;2.22;2.03;;;19.20;99.90;;;;;;4999579;28;20197;-78
2021/08/11 00:56:19;;;;;;;2.50;2.10;;;19.20;99.90;;;;;;4999070;28;20581;-79
2021/08/11 00:58:46;;;;;;;2.45;2.25;;;19.20;99.90;;;;;;4992553;28;20209;-78
2021/08/11 01:01:13;;;;;;;2.85;1.90;;;19.20;99.90;;;;;;4987312;28;20198;-78
2021/08/11 01:03:42;;;;;;;3.38;2.17;;;19.10;99.90;;;;;;4997651;28;20193;-78
2021/08/11 01:06:09;;;;;;;2.28;2.08;;;19.10;99.90;;;;;;4996551;28;20193;-79
2021/08/11 01:08:37;;;;;;;2.63;2.03;;;19.10;99.90;;;;;;4996433;28;20280;-79
2021/08/11 01:11:05;;;;;;;3.60;2.13;;;19.10;99.90;;;;;;4997371;28;20210;-79
2021/08/11 01:13:33;;;;;;;2.20;2.00;;;19.20;99.90;;;;;;4994306;28;20206;-78
2021/08/11 01:15:59;;;;;;;2.20;1.95;;;19.10;99.90;;;;;;4987355;28;20685;-79
2021/08/11 01:18:26;;;;;;;2.70;2.00;;;19.10;99.90;;;;;;4995942;28;20208;-78
2021/08/11 01:21:03;;;;;;;2.35;2.15;;;19.10;99.90;;;;;;4987408;28;20198;-79
2021/08/11 01:23:37;;;;;;;2.83;1.90;;;19.00;99.90;;;;;;4978805;28;20192;-77
2021/08/11 01:26:10;;;;;;;4.07;2.85;;;19.00;99.90;;;;;;4989687;28;20209;-79
2021/08/11 01:28:52;;;;;;;2.22;2.00;;;19.00;99.90;;;;;;4998436;28;20217;-79
2021/08/11 01:31:20;;;;;;;2.35;2.15;;;19.00;99.90;;;;;;4999387;28;20201;-79
2021/08/11 01:33:58;;;;;;;3.25;1.95;;;19.00;99.90;;;;;;4998438;28;20535;-77
2021/08/11 01:36:36;;;;;;;2.80;2.20;;;19.00;99.90;;;;;;4998159;28;20209;-78
2021/08/11 01:39:07;;;;;;;2.10;1.90;;;19.00;99.90;;;;;;4996662;28;20206;-78
2021/08/11 01:41:36;;;;;;;2.45;2.25;;;19.00;99.90;;;;;;4998429;28;20193;-78
2021/08/11 01:44:06;;;;;;;1.90;1.80;;;19.00;99.90;;;;;;4996678;28;20205;-78
2021/08/11 01:46:36;;;;;;;2.65;2.25;;;19.00;99.90;;;;;;4996549;28;20615;-78
2021/08/11 01:49:08;;;;;;;2.88;2.58;;;19.00;99.90;;;;;;4995765;28;20198;-77
2021/08/11 01:51:37;;;;;;;2.97;2.42;;;19.00;99.90;;;;;;4998242;28;20284;-78
2021/08/11 01:54:05;;;;;;;2.20;2.00;;;18.90;99.90;;;;;;4997991;28;20235;-77
2021/08/11 01:56:33;;;;;;;2.63;1.98;;;18.90;99.90;;;;;;4995028;28;20558;-78
2021/08/11 01:59:01;;;;;;;3.25;2.13;;;19.00;99.90;;;;;;4994564;28;20206;-78
2021/08/11 02:01:28;;;;;;;3.75;1.85;;;18.90;99.90;;;;;;4995236;28;20285;-78
2021/08/11 02:03:55;;;;;;;2.38;1.80;;;19.00;99.90;;;;;;4996861;28;20216;-78
2021/08/11 02:06:23;;;;;;;3.95;2.72;;;18.90;99.90;;;;;;4996187;28;20222;-77
2021/08/11 02:08:51;;;;;;;3.63;2.55;;;18.90;99.90;;;;;;4991852;28;20237;-78
2021/08/11 02:11:17;;;;;;;2.90;2.33;;;18.90;99.90;;;;;;4995936;28;20232;-77
2021/08/11 02:13:45;;;;;;;2.78;2.58;;;18.90;99.90;;;;;;4997983;28;20193;-78
2021/08/11 02:16:12;;;;;;;2.60;2.40;;;18.90;99.90;;;;;;4990517;28;20202;-78
2021/08/11 02:18:39;;;;;;;2.15;1.95;;;18.90;99.90;;;;;;4985101;28;20211;-78
2021/08/11 02:21:06;;;;;;;3.58;2.55;;;18.90;99.90;;;;;;4997458;28;20201;-79
2021/08/11 02:23:35;;;;;;;1.88;1.60;;;18.80;99.90;;;;;;4995847;28;20216;-77
2021/08/11 02:26:14;;;;;;;3.15;2.83;;;18.80;99.90;;;;;;4992206;28;20221;-79
2021/08/11 02:28:51;;;;;;;2.30;2.00;;;18.80;99.90;;;;;;4996750;28;20212;-80
2021/08/11 02:31:24;;;;;;;2.45;2.20;;;18.80;99.90;;;;;;4996624;28;20201;-80
2021/08/11 02:33:57;;;;;;;2.95;1.95;;;18.80;99.90;;;;;;4999090;28;20681;-80
2021/08/11 02:36:29;;;;;;;2.40;2.20;;;18.80;99.90;;;;;;5000493;28;20260;-80
2021/08/11 02:39:00;;;;;;;3.00;2.70;;;18.80;99.90;;;;;;4999383;28;20197;-80
2021/08/11 02:41:34;;;;;;;2.45;2.25;;;18.80;99.90;;;;;;4993025;28;20198;-78
2021/08/11 02:44:06;;;;;;;2.90;2.47;;;18.80;99.90;;;;;;4994174;28;20272;-78
2021/08/11 02:46:34;;;;;;;5.03;2.08;;;18.70;99.90;;;;;;4996301;28;20228;-78
2021/08/11 02:49:05;;;;;;;2.40;2.20;;;18.70;99.90;;;;;;4993885;28;20216;-77
2021/08/11 02:51:34;;;;;;;1.90;1.73;;;18.70;99.90;;;;;;4996797;28;20210;-78
2021/08/11 02:54:06;;;;;;;4.78;2.67;;;18.70;99.90;;;;;;4996224;28;20205;-79
2021/08/11 02:56:33;;;;;;;2.97;2.67;;;18.60;99.90;;;;;;4987501;28;20193;-77
2021/08/11 02:59:02;;;;;;;2.67;2.47;;;18.60;99.90;;;;;;4985327;28;20193;-78
2021/08/11 03:01:30;;;;;;;3.03;1.95;;;18.60;99.90;;;;;;4995358;28;20208;-79
2021/08/11 03:03:58;;;;;;;4.03;2.03;;;18.60;99.90;;;;;;4995762;28;20640;-78
2021/08/11 03:06:25;;;;;;;2.15;1.90;;;18.60;99.90;;;;;;4993444;28;20230;-78
2021/08/11 03:08:52;;;;;;;2.05;1.73;;;18.60;99.90;;;;;;4995802;28;20322;-79
2021/08/11 03:11:21;;;;;;;1.95;1.75;;;18.60;99.90;;;;;;4996669;28;20649;-78
2021/08/11 03:13:49;;;;;;;2.22;2.00;;;18.60;99.90;;;;;;4991528;28;20204;-78
2021/08/11 03:16:16;;;;;;;2.45;2.25;;;18.60;99.90;;;;;;4988862;28;20206;-77
2021/08/11 03:18:43;;;;;;;2.58;2.30;;;18.60;99.90;;;;;;4994548;28;20220;-79
2021/08/11 03:21:10;;;;;;;2.60;2.30;;;18.50;99.90;;;;;;4995976;28;20193;-79
2021/08/11 03:23:36;;;;;;;2.33;1.92;;;18.50;99.90;;;;;;4983193;28;20236;-78
2021/08/11 03:26:03;;;;;;;2.60;2.30;;;18.50;99.90;;;;;;4985136;28;20232;-78
2021/08/11 03:28:32;;;;;;;2.28;2.08;;;18.50;99.90;;;;;;4989344;28;20197;-78
2021/08/11 03:30:59;;;;;;;2.40;1.80;;;18.40;99.90;;;;;;4994345;28;20201;-78
2021/08/11 03:33:25;;;;;;;2.55;2.03;;;18.40;99.90;;;;;;4986963;28;20646;-77
2021/08/11 03:35:52;;;;;;;2.67;1.80;;;18.40;99.90;;;;;;4992049;28;20204;-79
2021/08/11 03:38:19;;;;;;;2.88;2.28;;;18.50;99.90;;;;;;4990791;28;20217;-78
2021/08/11 03:40:46;;;;;;;2.47;1.92;;;18.40;99.90;;;;;;4995553;28;20216;-78
2021/08/11 03:43:12;;;;;;;3.45;1.83;;;18.40;99.90;;;;;;4994604;28;20215;-78
2021/08/11 03:45:42;;;;;;;2.30;2.10;;;18.40;99.90;;;;;;4990051;28;20217;-78
2021/08/11 03:48:09;;;;;;;2.88;2.47;;;18.40;99.90;;;;;;4991683;28;20205;-78
2021/08/11 03:50:36;;;;;;;3.50;1.85;;;18.40;99.90;;;;;;4990008;28;20288;-77
2021/08/11 03:53:03;;;;;;;1.70;1.52;;;18.40;99.90;;;;;;4991266;28;20209;-77
2021/08/11 03:55:31;;;;;;;1.88;1.77;;;18.40;99.90;;;;;;4993433;28;20197;-78
2021/08/11 03:57:58;;;;;;;3.95;2.30;;;18.40;99.90;;;;;;4990812;28;20634;-78
2021/08/11 04:00:25;;;;;;;2.90;2.17;;;18.40;99.90;;;;;;4993801;28;20201;-78
2021/08/11 04:02:53;;;;;;;1.70;1.60;;;18.40;99.90;;;;;;4991708;28;20562;-78
2021/08/11 04:05:20;;;;;;;2.28;2.08;;;18.30;99.90;;;;;;4991856;28;20217;-78
2021/08/11 04:07:47;;;;;;;2.60;2.22;;;18.40;99.90;;;;;;4994843;28;20260;-78
2021/08/11 04:10:14;;;;;;;4.03;2.13;;;18.40;99.90;;;;;;4997688;28;20201;-78
2021/08/11 04:12:40;;;;;;;1.95;1.73;;;18.40;99.90;;;;;;4988288;28;20292;-79
2021/08/11 04:15:08;;;;;;;3.17;2.58;;;18.40;99.90;;;;;;4999125;28;20197;-79
2021/08/11 04:17:35;;;;;;;4.03;3.30;;;18.30;99.90;;;;;;5000356;28;20209;-78
2021/08/11 04:20:04;;;;;;;2.55;2.35;;;18.40;99.90;;;;;;4997546;28;20202;-78
2021/08/11 04:22:31;;;;;;;5.13;3.20;;;18.30;99.90;;;;;;4989451;28;20560;-79
2021/08/11 04:24:58;;;;;;;3.92;2.67;;;18.40;99.90;;;;;;4996511;28;20206;-79
2021/08/11 04:27:24;;;;;;;4.32;3.28;;;18.30;99.90;;;;;;4999878;28;20190;-79
2021/08/11 04:29:51;;;;;;;4.78;3.17;;;18.40;99.90;;;;;;4999960;28;20201;-79
2021/08/11 04:32:18;;;;;;;6.50;3.63;;;18.40;99.90;;;;;;4997598;28;20205;-78
2021/08/11 04:34:46;;;;;;;4.40;3.30;;;18.40;99.90;;;;;;4998421;28;20558;-79
2021/08/11 04:37:15;;;;;;;6.20;3.75;;;18.30;99.90;;;;;;4998977;28;20206;-78
2021/08/11 04:39:41;;;;;;;10.50;4.60;;;18.30;99.90;;;;;;4998781;28;20202;-77
2021/08/11 04:42:08;;;;;;;3.78;3.05;;;18.30;99.90;;;;;;4998475;28;20657;-77
2021/08/11 04:44:35;;;;;;;8.48;4.03;;;18.30;99.90;;;;;;4997332;28;20662;-79
2021/08/11 04:47:02;;;;;;;7.22;4.82;;;18.30;99.90;;;;;;4988339;28;20218;-79
2021/08/11 04:49:28;;;;;;;12.25;5.15;;;18.30;99.90;;;;;;4992684;28;22389;-79
2021/08/11 04:51:55;;;;;;;8.00;4.45;;;18.30;99.90;;;;;;4993890;28;20250;-78
2021/08/11 04:54:23;;;;;;;7.75;4.40;;;18.30;99.90;;;;;;4994404;28;20198;-79
2021/08/11 04:56:50;;;;;;;9.20;4.40;;;18.30;99.90;;;;;;4995743;28;20201;-78
2021/08/11 04:59:17;;;;;;;6.93;5.03;;;18.30;99.90;;;;;;4995558;28;21697;-77
2021/08/11 05:01:43;;;;;;;9.18;5.85;;;18.40;99.90;;;;;;4992821;28;20530;-78
2021/08/11 05:04:10;;;;;;;10.13;5.30;;;18.40;99.90;;;;;;4988145;28;20206;-78
2021/08/11 05:06:37;;;;;;;9.65;5.90;;;18.30;99.90;;;;;;4993677;28;20646;-79
2021/08/11 05:09:04;;;;;;;6.47;4.90;;;18.40;99.90;;;;;;4990760;28;20671;-78
2021/08/11 05:11:32;;;;;;;7.32;4.93;;;18.40;99.90;;;;;;4995260;28;20198;-78
2021/08/11 05:13:59;;;;;;;10.10;6.18;;;18.40;99.90;;;;;;4995684;28;20209;-78
2021/08/11 05:16:25;;;;;;;8.75;5.95;;;18.40;99.90;;;;;;4992039;28;20194;-78
2021/08/11 05:18:52;;;;;;;7.00;4.80;;;18.30;99.90;;;;;;4994227;28;20193;-78
2021/08/11 05:21:19;;;;;;;8.63;6.18;;;18.30;99.90;;;;;;4993092;28;20558;-78
2021/08/11 05:23:46;;;;;;;12.50;7.95;;;18.30;99.90;;;;;;4993519;28;20197;-78
2021/08/11 05:26:13;;;;;;;17.77;9.55;;;18.30;99.90;;;;;;4995400;28;20229;-79
2021/08/11 05:28:41;;;;;;;16.73;9.80;;;18.40;99.90;;;;;;4996316;28;20317;-77
2021/08/11 05:31:07;;;;;;;16.08;10.88;;;18.40;99.90;;;;;;4996964;28;20225;-76
2021/08/11 05:33:34;;;;;;;11.90;7.47;;;18.50;99.90;;;;;;4998304;28;20619;-78
2021/08/11 05:36:01;;;;;;;13.90;8.32;;;18.50;99.90;;;;;;4993818;28;20194;-78
2021/08/11 05:38:28;;;;;;;14.88;8.85;;;18.50;99.90;;;;;;4995107;28;20206;-77
2021/08/11 05:40:55;;;;;;;13.25;8.40;;;18.40;99.90;;;;;;4997995;28;20205;-77
2021/08/11 05:43:21;;;;;;;15.68;9.60;;;18.50;99.90;;;;;;4991588;28;20684;-79
2021/08/11 05:45:49;;;;;;;11.57;7.78;;;18.50;99.90;;;;;;4998426;28;20221;-79
2021/08/11 05:48:16;;;;;;;12.18;8.10;;;18.50;99.90;;;;;;4997860;28;20193;-78
2021/08/11 05:50:43;;;;;;;12.50;8.05;;;18.50;99.90;;;;;;4996717;28;20650;-79
2021/08/11 05:53:10;;;;;;;9.15;6.60;;;18.50;99.90;;;;;;4999518;28;20197;-78
2021/08/11 05:55:36;;;;;;;10.23;7.30;;;18.50;99.90;;;;;;4996431;28;20198;-78
2021/08/11 05:58:03;;;;;;;14.73;7.22;;;18.60;99.90;;;;;;4997799;28;20209;-79
2021/08/11 06:00:30;;;;;;;11.07;7.43;;;18.50;99.90;;;;;;4995382;28;20209;-79
2021/08/11 06:02:58;;;;;;;13.77;7.75;;;18.60;99.90;;;;;;4996219;28;20198;-79
2021/08/11 06:05:25;;;;;;;11.85;8.43;;;18.60;99.90;;;;;;4986376;28;20203;-78
2021/08/11 06:07:52;;;;;;;8.68;7.47;;;18.60;99.90;;;;;;4996153;28;20236;-78
2021/08/11 06:10:19;;;;;;;7.70;6.13;;;18.60;99.90;;;;;;4996246;28;20205;-78
2021/08/11 06:12:46;;;;;;;9.55;7.30;;;18.60;99.90;;;;;;4990710;28;20315;-79
2021/08/11 06:15:13;;;;;;;8.90;6.50;;;18.60;99.90;;;;;;4996794;28;20605;-78
2021/08/11 06:17:44;;;;;;;8.27;5.97;;;18.60;99.90;;;;;;4995131;28;20229;-78
2021/08/11 06:20:14;;;;;;;5.78;5.18;;;18.70;99.90;;;;;;4993649;28;20206;-78
2021/08/11 06:22:41;;;;;;;7.50;6.32;;;18.60;99.90;;;;;;4994514;28;20206;-78
2021/08/11 06:25:08;;;;;;;7.00;5.03;;;18.70;99.90;;;;;;4989734;28;20205;-77
2021/08/11 06:27:35;;;;;;;6.82;5.28;;;18.70;99.90;;;;;;4992110;28;20229;-78
2021/08/11 06:30:02;;;;;;;8.55;6.65;;;18.70;99.90;;;;;;4992284;28;20198;-78
2021/08/11 06:32:29;;;;;;;8.68;5.78;;;18.70;99.90;;;;;;4994308;28;20198;-77
2021/08/11 06:34:56;;;;;;;10.90;6.00;;;18.80;99.90;;;;;;4993037;28;20201;-77
2021/08/11 06:37:25;;;;;;;6.90;6.00;;;18.70;99.90;;;;;;4993255;28;20642;-77
2021/08/11 06:39:51;;;;;;;5.97;4.70;;;18.80;99.90;;;;;;4993833;28;20202;-77
2021/08/11 06:42:18;;;;;;;8.20;6.68;;;18.80;99.90;;;;;;4991603;28;20201;-77
2021/08/11 06:44:45;;;;;;;6.03;4.82;;;18.80;99.90;;;;;;4994307;28;20210;-78
2021/08/11 06:47:11;;;;;;;7.82;5.68;;;18.80;99.90;;;;;;4993518;28;20217;-78
2021/08/11 06:49:38;;;;;;;5.88;5.15;;;18.90;99.90;;;;;;4992073;28;20206;-78
2021/08/11 06:52:05;;;;;;;10.70;7.03;;;18.90;99.90;;;;;;4995586;28;20227;-78
2021/08/11 06:54:33;;;;;;;7.80;6.50;;;18.90;99.90;;;;;;4993422;28;20197;-78
2021/08/11 06:57:01;;;;;;;7.07;5.28;;;18.90;99.90;;;;;;4990600;28;20213;-82
2021/08/11 06:59:28;;;;;;;7.72;6.38;;;19.00;99.90;;;;;;4996127;28;20206;-81
2021/08/11 07:01:55;;;;;;;8.13;5.72;;;19.00;99.90;;;;;;4994495;28;20200;-79
2021/08/11 07:04:21;;;;;;;7.05;6.32;;;19.00;99.90;;;;;;4989169;28;20201;-79
2021/08/11 07:06:48;;;;;;;8.55;6.05;;;19.00;99.90;;;;;;4995998;28;20309;-81
2021/08/11 07:09:16;;;;;;;8.30;6.45;;;19.00;99.90;;;;;;4993155;28;20204;-78
2021/08/11 07:11:44;;;;;;;8.43;6.93;;;19.00;99.90;;;;;;4995121;28;20189;-78
2021/08/11 07:14:10;;;;;;;8.40;6.57;;;19.00;99.90;;;;;;4998544;28;20201;-79
2021/08/11 07:16:38;;;;;;;10.27;7.97;;;19.10;99.90;;;;;;4999381;28;20198;-78
2021/08/11 07:19:04;;;;;;;7.82;6.03;;;19.10;99.90;;;;;;4994476;28;20210;-78
2021/08/11 07:21:31;;;;;;;7.25;6.32;;;19.10;99.90;;;;;;4990145;28;20213;-79
2021/08/11 07:23:58;;;;;;;8.45;6.70;;;19.10;99.90;;;;;;4996872;28;20205;-79
2021/08/11 07:26:26;;;;;;;9.23;6.95;;;19.10;99.90;;;;;;4996786;28;20222;-79
2021/08/11 07:28:54;;;;;;;10.15;7.82;;;19.10;99.90;;;;;;4997711;28;20196;-78
2021/08/11 07:31:21;;;;;;;7.40;5.70;;;19.10;99.90;;;;;;4988914;28;20205;-77
2021/08/11 07:33:47;;;;;;;8.48;7.25;;;19.10;99.90;;;;;;4987577;28;20206;-78
2021/08/11 07:36:14;;;;;;;9.02;6.00;;;19.10;99.90;;;;;;4992174;28;20213;-78
2021/08/11 07:38:41;;;;;;;9.05;7.57;;;19.20;99.90;;;;;;4990205;28;20209;-78
2021/08/11 07:41:07;;;;;;;8.93;7.47;;;19.20;99.90;;;;;;4990373;28;20208;-78
2021/08/11 07:43:34;;;;;;;9.93;7.30;;;19.20;99.90;;;;;;4992739;28;20197;-78
2021/08/11 07:46:02;;;;;;;18.00;12.32;;;19.20;99.90;;;;;;4992174;28;20279;-77
2021/08/11 07:48:29;;;;;;;23.42;16.50;;;19.20;99.90;;;;;;4991604;28;20236;-78
2021/08/11 07:50:56;;;;;;;17.63;12.05;;;19.30;99.90;;;;;;4990873;28;20233;-77
2021/08/11 07:53:23;;;;;;;18.40;15.77;;;19.40;99.90;;;;;;4992268;28;20703;-78
2021/08/11 07:55:49;;;;;;;26.48;18.30;;;19.50;99.90;;;;;;4993885;28;20201;-76
2021/08/11 07:58:16;;;;;;;15.65;13.65;;;19.70;99.90;;;;;;4992525;28;20190;-78
2021/08/11 08:00:43;;;;;;;20.48;16.55;;;20.00;99.90;;;;;;4990894;28;20204;-77
2021/08/11 08:03:11;;;;;;;21.27;15.88;;;20.20;99.90;;;;;;4990770;28;20208;-77
2021/08/11 08:05:38;;;;;;;17.63;14.52;;;20.30;99.90;;;;;;4989897;28;20197;-76
2021/08/11 08:08:05;;;;;;;18.17;15.50;;;20.40;99.90;;;;;;4988904;28;20237;-77
2021/08/11 08:10:32;;;;;;;14.57;12.82;;;20.50;99.90;;;;;;4986984;28;20254;-77
2021/08/11 08:12:59;;;;;;;17.33;15.13;;;20.60;99.90;;;;;;4990179;28;20201;-77
2021/08/11 08:15:28;;;;;;;13.40;11.80;;;20.70;99.90;;;;;;4993125;28;20201;-77
2021/08/11 08:17:55;;;;;;;14.80;13.23;;;20.80;99.90;;;;;;4981957;28;20195;-77
2021/08/11 08:20:23;;;;;;;15.70;13.98;;;20.90;99.90;;;;;;4984111;28;20209;-77
2021/08/11 08:22:51;;;;;;;15.52;13.75;;;21.00;99.90;;;;;;4993491;28;20220;-76
2021/08/11 08:25:20;;;;;;;17.25;12.80;;;21.10;99.90;;;;;;4993525;28;20269;-76
2021/08/11 08:27:49;;;;;;;17.67;14.10;;;21.10;99.90;;;;;;4995024;28;20325;-77
2021/08/11 08:30:16;;;;;;;15.02;13.52;;;21.20;99.90;;;;;;4994270;28;20210;-77
2021/08/11 08:32:43;;;;;;;19.98;16.13;;;21.10;99.90;;;;;;4996554;28;20610;-77
2021/08/11 08:35:11;;;;;;;14.65;12.80;;;21.10;99.90;;;;;;4992506;28;20677;-77
2021/08/11 08:37:39;;;;;;;14.88;13.13;;;21.10;99.90;;;;;;4988352;28;20197;-76
2021/08/11 08:40:08;;;;;;;15.48;13.93;;;21.20;99.90;;;;;;4993855;28;20205;-76
2021/08/11 08:42:35;;;;;;;15.70;13.77;;;21.30;99.90;;;;;;4981391;28;20638;-77
2021/08/11 08:45:02;;;;;;;16.75;13.80;;;21.30;99.90;;;;;;4994671;28;20212;-77
2021/08/11 08:47:31;;;;;;;17.45;15.40;;;21.40;99.90;;;;;;4993260;28;20236;-76
2021/08/11 08:49:58;;;;;;;14.45;12.63;;;21.40;99.90;;;;;;4994749;28;20552;-77
2021/08/11 08:52:25;;;;;;;15.65;14.02;;;21.40;99.90;;;;;;4994816;28;20193;-77
2021/08/11 08:54:58;;;;;;;14.93;13.38;;;21.40;99.90;;;;;;4990822;28;20202;-76
2021/08/11 08:57:25;;;;;;;14.48;12.98;;;21.40;99.90;;;;;;4987229;28;20226;-77
2021/08/11 08:59:53;;;;;;;15.63;13.38;;;21.50;99.90;;;;;;4989941;28;20224;-77
2021/08/11 09:02:19;;;;;;;14.75;13.25;;;21.60;99.90;;;;;;4992041;28;20198;-76
2021/08/11 09:04:46;;;;;;;14.93;13.43;;;21.70;99.90;;;;;;4993683;28;20201;-77
2021/08/11 09:07:16;;;;;;;15.00;13.50;;;21.70;99.90;;;;;;4992416;28;20245;-77
2021/08/11 09:09:43;;;;;;;16.13;14.35;;;21.80;99.90;;;;;;4993675;28;20212;-77
2021/08/11 09:12:14;;;;;;;14.00;12.15;;;21.90;99.90;;;;;;4996122;28;20712;-79
2021/08/11 09:14:45;;;;;;;14.50;13.10;;;21.90;99.90;;;;;;4993686;28;20199;-77
2021/08/11 09:17:13;;;;;;;14.02;11.82;;;21.90;99.90;;;;;;4992657;28;20193;-75
2021/08/11 09:19:44;;;;;;;14.10;12.50;;;21.90;99.90;;;;;;4989488;28;20295;-77
2021/08/11 09:22:12;;;;;;;14.60;13.10;;;21.80;99.90;;;;;;4992774;28;20938;-78
2021/08/11 09:24:40;;;;;;;15.40;13.90;;;21.80;99.90;;;;;;4992492;28;20202;-77
2021/08/11 09:27:23;;;;;;;15.75;14.00;;;21.80;99.90;;;;;;4992911;28;20226;-78
2021/08/11 09:30:08;;;;;;;13.95;12.50;;;21.80;99.90;;;;;;4989091;28;20198;-79
2021/08/11 09:32:57;;;;;;;15.15;13.60;;;21.90;99.90;;;;;;4990977;28;20199;-78
2021/08/11 09:35:26;;;;;;;14.43;12.95;;;21.80;99.90;;;;;;4985247;28;20204;-77
2021/08/11 09:37:55;;;;;;;15.10;13.55;;;21.90;99.90;;;;;;4988838;28;20202;-77
2021/08/11 09:40:24;;;;;;;15.00;13.50;;;21.90;99.90;;;;;;4991963;28;20531;-77
2021/08/11 09:42:56;;;;;;;13.90;12.50;;;21.90;99.90;;;;;;4988889;28;21007;-77
2021/08/11 09:45:23;;;;;;;17.35;15.63;;;21.90;99.90;;;;;;4991984;28;20201;-77
2021/08/11 09:48:02;;;;;;;16.80;15.10;;;22.00;99.90;;;;;;4990100;28;20228;-77
2021/08/11 09:50:37;;;;;;;16.07;14.50;;;22.10;99.90;;;;;;4991124;28;20452;-77
2021/08/11 09:53:06;;;;;;;15.37;13.77;;;22.10;99.90;;;;;;4992363;28;20810;-77
2021/08/11 09:55:56;;;;;;;17.77;14.40;;;22.20;99.90;;;;;;4991592;28;20464;-77
2021/08/11 09:58:24;;;;;;;14.23;12.70;;;22.20;99.90;;;;;;4989673;28;20491;-77
2021/08/11 10:00:52;;;;;;;15.57;14.13;;;22.30;99.90;;;;;;4990177;28;20460;-78
2021/08/11 10:03:18;;;;;;;14.50;13.10;;;22.30;99.90;;;;;;4995447;28;20551;-78
2021/08/11 10:05:45;;;;;;;15.40;13.90;;;22.30;99.90;;;;;;4995014;28;20476;-77
2021/08/11 10:08:12;;;;;;;16.13;14.63;;;22.30;99.90;;;;;;4995135;28;21011;-77
2021/08/11 10:10:46;;;;;;;15.70;14.17;;;22.30;99.90;;;;;;4995267;28;20464;-77
2021/08/11 10:13:16;;;;;;;14.60;13.20;;;22.30;99.90;;;;;;4994578;28;20464;-77
2021/08/11 10:15:45;;;;;;;14.40;12.98;;;22.40;99.90;;;;;;4994610;28;20475;-77
2021/08/11 10:18:13;;;;;;;14.60;13.05;;;22.40;99.90;;;;;;4993725;28;20197;-77
2021/08/11 10:20:43;;;;;;;19.23;17.20;;;22.30;99.90;;;;;;4993527;28;20256;-78
2021/08/11 10:23:10;;;;;;;15.33;13.03;;;22.30;99.90;;;;;;4996133;28;20476;-78
2021/08/11 10:25:36;;;;;;;15.00;13.50;;;22.30;99.90;;;;;;4996007;28;20961;-78
2021/08/11 10:28:04;;;;;;;14.40;13.00;;;22.30;99.90;;;;;;4997057;28;20480;-78
2021/08/11 10:30:32;;;;;;;13.37;12.07;;;22.40;99.90;;;;;;4996481;28;20460;-77
2021/08/11 10:33:02;;;;;;;13.93;11.97;;;22.30;99.90;;;;;;4993596;28;20472;-78
2021/08/11 10:35:30;;;;;;;13.17;12.07;;;22.30;99.90;;;;;;4991361;28;20964;-78
2021/08/11 10:37:58;;;;;;;13.03;11.73;;;22.30;99.90;;;;;;4992967;28;20452;-77
2021/08/11 10:40:25;;;;;;;13.50;12.20;;;22.30;99.90;;;;;;4993050;28;20461;-78
2021/08/11 10:42:54;;;;;;;12.63;11.40;;;22.30;99.90;;;;;;4992217;28;20456;-78
2021/08/11 10:45:23;;;;;;;13.65;12.35;;;22.30;99.90;;;;;;4992379;28;20953;-78
2021/08/11 10:47:51;;;;;;;12.95;11.73;;;22.20;99.90;;;;;;4990345;28;20281;-77
2021/08/11 10:50:19;;;;;;;13.17;12.00;;;22.20;99.90;;;;;;4989114;28;20208;-77
2021/08/11 10:52:46;;;;;;;12.93;11.73;;;22.30;99.90;;;;;;4992724;28;21004;-77
2021/08/11 10:55:13;;;;;;;12.10;11.00;;;22.30;99.90;;;;;;4992196;28;20971;-78
2021/08/11 10:57:48;;;;;;;11.67;10.57;;;22.30;99.90;;;;;;4992380;28;20456;-78
2021/08/11 11:00:43;;;;;;;10.63;9.63;;;22.30;99.90;;;;;;4992512;28;20449;-77
2021/08/11 11:03:47;;;;;;;10.60;9.70;;;22.30;99.90;;;;;;4991884;28;20453;-78
2021/08/11 11:06:15;;;;;;;12.00;11.00;;;22.40;99.90;;;;;;4990098;28;20221;-77
2021/08/11 11:08:41;;;;;;;10.73;9.67;;;22.40;99.90;;;;;;4992314;28;20492;-78
2021/08/11 11:11:42;;;;;;;9.83;8.93;;;22.40;99.90;;;;;;4992433;28;20834;-78
2021/08/11 11:14:56;;;;;;;10.93;9.90;;;22.40;99.90;;;;;;4990497;28;20460;-77
2021/08/11 11:17:24;;;;;;;11.73;10.73;;;22.40;99.90;;;;;;4992014;28;20441;-78
2021/08/11 11:20:20;;;;;;;10.30;9.40;;;22.40;99.90;;;;;;4994980;28;20449;-77
2021/08/11 11:22:53;;;;;;;9.17;8.43;;;22.50;99.90;;;;;;4983035;28;20468;-78
2021/08/11 11:25:20;;;;;;;9.87;9.07;;;22.50;99.90;;;;;;4993748;28;20467;-78
2021/08/11 11:27:55;;;;;;;9.80;8.90;;;22.50;99.90;;;;;;4996271;28;20491;-78
2021/08/11 11:30:36;;;;;;;9.23;8.40;;;22.50;99.90;;;;;;4994583;28;20471;-78
2021/08/11 11:33:32;;;;;;;9.77;8.97;;;22.50;99.90;;;;;;4995018;28;20456;-77
2021/08/11 11:36:22;;;;;;;9.53;8.73;;;22.50;99.90;;;;;;4995835;28;20436;-77
2021/08/11 11:39:06;;;;;;;9.13;7.97;;;22.50;99.90;;;;;;4994316;28;20453;-78
2021/08/11 11:41:33;;;;;;;8.37;7.63;;;22.50;99.90;;;;;;4995105;28;20429;-77
2021/08/11 11:44:35;;;;;;;9.32;7.20;;;22.60;99.90;;;;;;4984760;28;20962;-78
2021/08/11 11:47:02;;;;;;;8.03;7.33;;;22.60;99.90;;;;;;4977732;28;20561;-77
2021/08/11 11:49:29;;;;;;;7.50;6.90;;;22.60;99.90;;;;;;4992765;28;20826;-77
2021/08/11 11:51:56;;;;;;;8.53;7.83;;;22.60;99.90;;;;;;4994361;28;20944;-78
2021/08/11 11:54:25;;;;;;;7.40;6.73;;;22.60;99.90;;;;;;4992569;28;20460;-77
2021/08/11 11:56:51;;;;;;;7.53;6.93;;;22.60;99.90;;;;;;4991942;28;20469;-76
2021/08/11 11:59:19;;;;;;;7.30;6.60;;;22.70;99.90;;;;;;4987856;28;20456;-78
2021/08/11 12:01:47;;;;;;;8.00;7.27;;;22.70;99.90;;;;;;4994465;28;20461;-78
2021/08/11 12:04:23;;;;;;;6.67;6.07;;;22.70;99.90;;;;;;4995196;28;20475;-78
2021/08/11 12:06:50;;;;;;;6.47;5.87;;;22.70;99.90;;;;;;4994941;28;20448;-77
2021/08/11 12:09:16;;;;;;;8.30;7.57;;;22.70;99.90;;;;;;4996494;28;20480;-78
2021/08/11 12:11:45;;;;;;;6.53;6.00;;;22.70;99.90;;;;;;4995561;28;20869;-78
2021/08/11 12:14:22;;;;;;;6.50;5.90;;;22.70;99.90;;;;;;4994368;28;20556;-78
2021/08/11 12:16:50;;;;;;;6.63;6.03;;;22.70;99.90;;;;;;4993205;28;20460;-78
2021/08/11 12:19:18;;;;;;;6.13;5.60;;;22.70;99.90;;;;;;4993679;28;20465;-78
2021/08/11 12:21:47;;;;;;;6.23;5.70;;;22.70;99.90;;;;;;4992633;28;20463;-78
2021/08/11 12:24:14;;;;;;;6.30;5.70;;;22.70;99.90;;;;;;4995041;28;20461;-77
2021/08/11 12:26:41;;;;;;;6.00;5.50;;;22.70;99.90;;;;;;4992862;28;20479;-78
2021/08/11 12:29:20;;;;;;;6.60;6.00;;;22.70;99.90;;;;;;4993893;28;20491;-77
2021/08/11 12:31:48;;;;;;;7.93;6.50;;;22.70;99.90;;;;;;4996583;28;20531;-78
2021/08/11 12:34:16;;;;;;;6.27;5.77;;;22.70;99.90;;;;;;4996987;28;20464;-78
2021/08/11 12:36:43;;;;;;;6.00;5.50;;;22.70;99.90;;;;;;4997273;28;20463;-78
2021/08/11 12:39:12;;;;;;;6.23;5.80;;;22.70;99.90;;;;;;4997937;28;20511;-78
2021/08/11 12:41:41;;;;;;;6.53;6.00;;;22.70;99.90;;;;;;4997670;28;20844;-78
2021/08/11 12:44:27;;;;;;;6.40;5.90;;;22.70;99.90;;;;;;4995503;28;20825;-78
2021/08/11 12:46:56;;;;;;;6.73;6.03;;;22.70;99.90;;;;;;4995316;28;20506;-78
2021/08/11 12:49:24;;;;;;;6.47;5.87;;;22.70;99.90;;;;;;5000202;28;20495;-78
2021/08/11 12:52:16;;;;;;;5.57;5.07;;;22.70;99.90;;;;;;5000049;28;20930;-78